sensor_id;sensor_type;location;lat;lon;timestamp;P1;durP1;ratioP1;P2;durP2;ratioP2
4676;SDS011;2352;48.180;11.478;2023-04-03T00:00:26;6.43;;;5.90;;
4676;SDS011;2352;48.180;11.478;2023-04-03T00:03:30;5.30;;;4.90;;
4676;SDS011;2352;48.180;11.478;2023-04-03T00:06:34;6.10;;;5.53;;
4676;SDS011;2352;48.180;11.478;2023-04-03T00:09:37;5.87;;;5.47;;
4676;SDS011;2352;48.180;11.478;2023-04-03T00:12:40;5.30;;;4.83;;
4676;SDS011;2352;48.180;11.478;2023-04-03T00:15:43;5.77;;;5.20;;
4676;SDS011;2352;48.180;11.478;2023-04-03T00:18:47;5.37;;;4.97;;
4676;SDS011;2352;48.180;11.478;2023-04-03T00:21:50;5.60;;;5.10;;
4676;SDS011;2352;48.180;11.478;2023-04-03T00:24:54;5.00;;;4.60;;
4676;SDS011;2352;48.180;11.478;2023-04-03T00:27:58;5.43;;;5.00;;
4676;SDS011;2352;48.180;11.478;2023-04-03T00:31:01;5.10;;;4.60;;
4676;SDS011;2352;48.180;11.478;2023-04-03T00:34:05;4.87;;;4.47;;
4676;SDS011;2352;48.180;11.478;2023-04-03T00:37:08;4.93;;;4.53;;
4676;SDS011;2352;48.180;11.478;2023-04-03T00:40:12;5.40;;;5.00;;
4676;SDS011;2352;48.180;11.478;2023-04-03T00:43:21;5.80;;;5.17;;
4676;SDS011;2352;48.180;11.478;2023-04-03T00:46:25;4.57;;;4.17;;
4676;SDS011;2352;48.180;11.478;2023-04-03T00:49:29;4.30;;;4.00;;
4676;SDS011;2352;48.180;11.478;2023-04-03T00:52:32;4.57;;;4.27;;
4676;SDS011;2352;48.180;11.478;2023-04-03T00:55:35;5.10;;;4.60;;
4676;SDS011;2352;48.180;11.478;2023-04-03T00:58:41;4.60;;;4.13;;
4676;SDS011;2352;48.180;11.478;2023-04-03T01:01:48;4.87;;;4.47;;
4676;SDS011;2352;48.180;11.478;2023-04-03T01:04:53;4.73;;;4.33;;
4676;SDS011;2352;48.180;11.478;2023-04-03T01:07:56;6.50;;;4.83;;
4676;SDS011;2352;48.180;11.478;2023-04-03T01:11:00;4.67;;;4.37;;
4676;SDS011;2352;48.180;11.478;2023-04-03T01:14:03;5.23;;;4.83;;
4676;SDS011;2352;48.180;11.478;2023-04-03T01:17:21;4.57;;;4.27;;
4676;SDS011;2352;48.180;11.478;2023-04-03T01:20:41;4.17;;;3.97;;
4676;SDS011;2352;48.180;11.478;2023-04-03T01:24:11;4.57;;;4.17;;
4676;SDS011;2352;48.180;11.478;2023-04-03T01:27:43;4.13;;;3.83;;
4676;SDS011;2352;48.180;11.478;2023-04-03T01:30:47;4.67;;;4.20;;
4676;SDS011;2352;48.180;11.478;2023-04-03T01:33:56;4.33;;;4.03;;
4676;SDS011;2352;48.180;11.478;2023-04-03T01:37:00;4.07;;;3.77;;
4676;SDS011;2352;48.180;11.478;2023-04-03T01:40:03;4.53;;;4.23;;
4676;SDS011;2352;48.180;11.478;2023-04-03T01:43:08;4.53;;;4.23;;
4676;SDS011;2352;48.180;11.478;2023-04-03T01:46:11;4.23;;;3.93;;
4676;SDS011;2352;48.180;11.478;2023-04-03T01:49:15;5.13;;;4.63;;
4676;SDS011;2352;48.180;11.478;2023-04-03T01:52:18;4.03;;;3.73;;
4676;SDS011;2352;48.180;11.478;2023-04-03T01:55:21;4.53;;;4.00;;
4676;SDS011;2352;48.180;11.478;2023-04-03T01:58:24;4.53;;;4.23;;
4676;SDS011;2352;48.180;11.478;2023-04-03T02:01:27;4.43;;;4.13;;
4676;SDS011;2352;48.180;11.478;2023-04-03T02:04:31;4.00;;;3.70;;
4676;SDS011;2352;48.180;11.478;2023-04-03T02:07:34;4.30;;;4.00;;
4676;SDS011;2352;48.180;11.478;2023-04-03T02:10:37;3.87;;;3.67;;
4676;SDS011;2352;48.180;11.478;2023-04-03T02:13:40;4.97;;;4.67;;
4676;SDS011;2352;48.180;11.478;2023-04-03T02:16:43;4.70;;;4.23;;
4676;SDS011;2352;48.180;11.478;2023-04-03T02:19:48;4.50;;;4.10;;
4676;SDS011;2352;48.180;11.478;2023-04-03T02:22:51;3.73;;;3.53;;
4676;SDS011;2352;48.180;11.478;2023-04-03T02:26:01;3.80;;;3.50;;
4676;SDS011;2352;48.180;11.478;2023-04-03T02:29:08;4.63;;;3.00;;
4676;SDS011;2352;48.180;11.478;2023-04-03T02:32:11;3.83;;;3.63;;
4676;SDS011;2352;48.180;11.478;2023-04-03T02:35:16;3.93;;;3.73;;
4676;SDS011;2352;48.180;11.478;2023-04-03T02:38:19;3.40;;;3.10;;
4676;SDS011;2352;48.180;11.478;2023-04-03T02:41:22;4.13;;;3.60;;
4676;SDS011;2352;48.180;11.478;2023-04-03T02:44:26;3.43;;;3.23;;
4676;SDS011;2352;48.180;11.478;2023-04-03T02:47:29;3.43;;;3.23;;
4676;SDS011;2352;48.180;11.478;2023-04-03T02:50:33;3.83;;;3.50;;
4676;SDS011;2352;48.180;11.478;2023-04-03T02:53:37;3.63;;;3.33;;
4676;SDS011;2352;48.180;11.478;2023-04-03T02:56:40;3.87;;;3.50;;
4676;SDS011;2352;48.180;11.478;2023-04-03T02:59:43;3.43;;;3.23;;
4676;SDS011;2352;48.180;11.478;2023-04-03T03:02:46;3.70;;;3.47;;
4676;SDS011;2352;48.180;11.478;2023-04-03T03:06:01;2.93;;;2.70;;
4676;SDS011;2352;48.180;11.478;2023-04-03T03:09:05;3.90;;;3.17;;
4676;SDS011;2352;48.180;11.478;2023-04-03T03:12:08;3.67;;;3.43;;
4676;SDS011;2352;48.180;11.478;2023-04-03T03:15:11;3.13;;;2.93;;
4676;SDS011;2352;48.180;11.478;2023-04-03T03:18:14;2.70;;;2.50;;
4676;SDS011;2352;48.180;11.478;2023-04-03T03:21:18;3.13;;;2.77;;
4676;SDS011;2352;48.180;11.478;2023-04-03T03:24:22;2.90;;;2.70;;
4676;SDS011;2352;48.180;11.478;2023-04-03T03:27:25;3.20;;;3.00;;
4676;SDS011;2352;48.180;11.478;2023-04-03T03:30:27;3.20;;;3.00;;
4676;SDS011;2352;48.180;11.478;2023-04-03T03:33:30;3.00;;;2.80;;
4676;SDS011;2352;48.180;11.478;2023-04-03T03:36:35;2.97;;;2.77;;
4676;SDS011;2352;48.180;11.478;2023-04-03T03:39:38;3.33;;;3.13;;
4676;SDS011;2352;48.180;11.478;2023-04-03T03:42:41;3.13;;;2.83;;
4676;SDS011;2352;48.180;11.478;2023-04-03T03:45:44;3.50;;;3.20;;
4676;SDS011;2352;48.180;11.478;2023-04-03T03:48:47;3.47;;;2.67;;
4676;SDS011;2352;48.180;11.478;2023-04-03T03:51:52;3.27;;;3.07;;
4676;SDS011;2352;48.180;11.478;2023-04-03T03:54:55;3.20;;;3.00;;
4676;SDS011;2352;48.180;11.478;2023-04-03T03:57:58;2.40;;;2.30;;
4676;SDS011;2352;48.180;11.478;2023-04-03T04:01:02;2.50;;;2.30;;
4676;SDS011;2352;48.180;11.478;2023-04-03T04:04:07;2.80;;;2.60;;
4676;SDS011;2352;48.180;11.478;2023-04-03T04:07:11;3.13;;;2.73;;
4676;SDS011;2352;48.180;11.478;2023-04-03T04:10:14;3.07;;;2.87;;
4676;SDS011;2352;48.180;11.478;2023-04-03T04:13:17;3.13;;;2.93;;
4676;SDS011;2352;48.180;11.478;2023-04-03T04:16:20;3.83;;;3.47;;
4676;SDS011;2352;48.180;11.478;2023-04-03T04:19:23;3.23;;;3.03;;
4676;SDS011;2352;48.180;11.478;2023-04-03T04:22:27;4.33;;;4.03;;
4676;SDS011;2352;48.180;11.478;2023-04-03T04:25:30;4.83;;;4.43;;
4676;SDS011;2352;48.180;11.478;2023-04-03T04:28:34;4.00;;;3.67;;
4676;SDS011;2352;48.180;11.478;2023-04-03T04:31:37;5.43;;;3.60;;
4676;SDS011;2352;48.180;11.478;2023-04-03T04:34:39;3.93;;;3.33;;
4676;SDS011;2352;48.180;11.478;2023-04-03T04:37:44;3.47;;;3.17;;
4676;SDS011;2352;48.180;11.478;2023-04-03T04:40:47;4.00;;;3.70;;
4676;SDS011;2352;48.180;11.478;2023-04-03T04:43:50;3.57;;;3.27;;
4676;SDS011;2352;48.180;11.478;2023-04-03T04:46:53;3.67;;;3.47;;
4676;SDS011;2352;48.180;11.478;2023-04-03T04:49:56;3.17;;;2.60;;
4676;SDS011;2352;48.180;11.478;2023-04-03T04:53:00;3.57;;;3.37;;
4676;SDS011;2352;48.180;11.478;2023-04-03T04:56:04;3.83;;;3.53;;
4676;SDS011;2352;48.180;11.478;2023-04-03T04:59:07;3.20;;;2.90;;
4676;SDS011;2352;48.180;11.478;2023-04-03T05:02:10;3.23;;;3.00;;
4676;SDS011;2352;48.180;11.478;2023-04-03T05:05:13;3.43;;;3.10;;
4676;SDS011;2352;48.180;11.478;2023-04-03T05:08:18;3.60;;;3.40;;
4676;SDS011;2352;48.180;11.478;2023-04-03T05:11:21;3.93;;;3.20;;
4676;SDS011;2352;48.180;11.478;2023-04-03T05:14:25;3.40;;;3.10;;
4676;SDS011;2352;48.180;11.478;2023-04-03T05:17:28;3.40;;;3.10;;
4676;SDS011;2352;48.180;11.478;2023-04-03T05:20:31;3.57;;;3.30;;
4676;SDS011;2352;48.180;11.478;2023-04-03T05:23:36;3.90;;;3.60;;
4676;SDS011;2352;48.180;11.478;2023-04-03T05:26:39;3.73;;;3.43;;
4676;SDS011;2352;48.180;11.478;2023-04-03T05:29:42;3.50;;;3.20;;
4676;SDS011;2352;48.180;11.478;2023-04-03T05:32:45;3.50;;;3.23;;
4676;SDS011;2352;48.180;11.478;2023-04-03T05:35:48;4.57;;;4.17;;
4676;SDS011;2352;48.180;11.478;2023-04-03T05:38:53;4.40;;;4.10;;
4676;SDS011;2352;48.180;11.478;2023-04-03T05:41:57;4.10;;;3.47;;
4676;SDS011;2352;48.180;11.478;2023-04-03T05:45:00;3.37;;;3.07;;
4676;SDS011;2352;48.180;11.478;2023-04-03T05:48:03;3.90;;;3.60;;
4676;SDS011;2352;48.180;11.478;2023-04-03T05:51:07;3.43;;;3.13;;
4676;SDS011;2352;48.180;11.478;2023-04-03T05:54:17;3.47;;;3.17;;
4676;SDS011;2352;48.180;11.478;2023-04-03T05:57:24;3.17;;;2.97;;
4676;SDS011;2352;48.180;11.478;2023-04-03T06:00:27;3.67;;;3.37;;
4676;SDS011;2352;48.180;11.478;2023-04-03T06:03:30;4.30;;;4.00;;
4676;SDS011;2352;48.180;11.478;2023-04-03T06:06:43;3.67;;;3.47;;
4676;SDS011;2352;48.180;11.478;2023-04-03T06:09:49;3.60;;;3.30;;
4676;SDS011;2352;48.180;11.478;2023-04-03T06:12:53;4.93;;;3.17;;
4676;SDS011;2352;48.180;11.478;2023-04-03T06:15:56;3.67;;;3.37;;
4676;SDS011;2352;48.180;11.478;2023-04-03T06:18:59;3.97;;;3.57;;
4676;SDS011;2352;48.180;11.478;2023-04-03T06:22:02;4.87;;;3.53;;
4676;SDS011;2352;48.180;11.478;2023-04-03T06:25:07;3.63;;;3.40;;
4676;SDS011;2352;48.180;11.478;2023-04-03T06:28:11;4.43;;;4.13;;
4676;SDS011;2352;48.180;11.478;2023-04-03T06:31:14;4.17;;;3.87;;
4676;SDS011;2352;48.180;11.478;2023-04-03T06:34:18;3.33;;;3.13;;
4676;SDS011;2352;48.180;11.478;2023-04-03T06:37:22;3.30;;;3.10;;
4676;SDS011;2352;48.180;11.478;2023-04-03T06:40:28;4.97;;;4.57;;
4676;SDS011;2352;48.180;11.478;2023-04-03T06:43:31;4.13;;;3.83;;
4676;SDS011;2352;48.180;11.478;2023-04-03T06:46:35;3.97;;;3.67;;
4676;SDS011;2352;48.180;11.478;2023-04-03T06:49:38;4.30;;;4.00;;
4676;SDS011;2352;48.180;11.478;2023-04-03T06:52:41;3.67;;;3.40;;
4676;SDS011;2352;48.180;11.478;2023-04-03T06:55:45;4.10;;;3.80;;
4676;SDS011;2352;48.180;11.478;2023-04-03T06:58:49;6.17;;;4.33;;
4676;SDS011;2352;48.180;11.478;2023-04-03T07:01:52;4.53;;;4.00;;
4676;SDS011;2352;48.180;11.478;2023-04-03T07:04:55;4.47;;;4.17;;
4676;SDS011;2352;48.180;11.478;2023-04-03T07:07:58;3.47;;;3.03;;
4676;SDS011;2352;48.180;11.478;2023-04-03T07:11:03;4.03;;;3.73;;
4676;SDS011;2352;48.180;11.478;2023-04-03T07:14:07;3.33;;;3.13;;
4676;SDS011;2352;48.180;11.478;2023-04-03T07:17:10;4.07;;;3.77;;
4676;SDS011;2352;48.180;11.478;2023-04-03T07:20:12;3.53;;;3.33;;
4676;SDS011;2352;48.180;11.478;2023-04-03T07:23:16;4.97;;;4.00;;
4676;SDS011;2352;48.180;11.478;2023-04-03T07:26:21;3.60;;;3.30;;
4676;SDS011;2352;48.180;11.478;2023-04-03T07:29:24;4.10;;;3.80;;
4676;SDS011;2352;48.180;11.478;2023-04-03T07:32:27;4.30;;;3.90;;
4676;SDS011;2352;48.180;11.478;2023-04-03T07:35:31;3.43;;;3.20;;
4676;SDS011;2352;48.180;11.478;2023-04-03T07:38:34;4.03;;;3.40;;
4676;SDS011;2352;48.180;11.478;2023-04-03T07:41:39;4.03;;;3.70;;
4676;SDS011;2352;48.180;11.478;2023-04-03T07:44:42;4.43;;;4.13;;
4676;SDS011;2352;48.180;11.478;2023-04-03T07:47:45;3.97;;;3.43;;
4676;SDS011;2352;48.180;11.478;2023-04-03T07:50:49;4.30;;;3.70;;
4676;SDS011;2352;48.180;11.478;2023-04-03T07:53:52;4.53;;;4.23;;
4676;SDS011;2352;48.180;11.478;2023-04-03T07:56:56;4.57;;;4.27;;
4676;SDS011;2352;48.180;11.478;2023-04-03T08:00:00;4.00;;;3.80;;
4676;SDS011;2352;48.180;11.478;2023-04-03T08:03:03;4.20;;;3.90;;
4676;SDS011;2352;48.180;11.478;2023-04-03T08:06:08;4.50;;;4.10;;
4676;SDS011;2352;48.180;11.478;2023-04-03T08:09:16;4.73;;;4.43;;
4676;SDS011;2352;48.180;11.478;2023-04-03T08:12:21;6.93;;;4.77;;
4676;SDS011;2352;48.180;11.478;2023-04-03T08:15:23;7.60;;;4.33;;
4676;SDS011;2352;48.180;11.478;2023-04-03T08:18:26;4.83;;;4.53;;
4676;SDS011;2352;48.180;11.478;2023-04-03T08:21:29;4.37;;;4.07;;
4676;SDS011;2352;48.180;11.478;2023-04-03T08:24:32;5.53;;;5.00;;
4676;SDS011;2352;48.180;11.478;2023-04-03T08:27:39;5.23;;;4.77;;
4676;SDS011;2352;48.180;11.478;2023-04-03T08:30:42;5.77;;;5.13;;
4676;SDS011;2352;48.180;11.478;2023-04-03T08:33:45;4.50;;;4.20;;
4676;SDS011;2352;48.180;11.478;2023-04-03T08:36:48;5.23;;;4.73;;
4676;SDS011;2352;48.180;11.478;2023-04-03T08:39:51;4.93;;;4.60;;
4676;SDS011;2352;48.180;11.478;2023-04-03T08:43:00;6.43;;;3.97;;
4676;SDS011;2352;48.180;11.478;2023-04-03T08:46:14;4.53;;;4.13;;
4676;SDS011;2352;48.180;11.478;2023-04-03T08:49:22;4.37;;;4.07;;
4676;SDS011;2352;48.180;11.478;2023-04-03T08:52:32;4.97;;;4.50;;
4676;SDS011;2352;48.180;11.478;2023-04-03T08:55:39;5.43;;;4.93;;
4676;SDS011;2352;48.180;11.478;2023-04-03T08:58:47;4.67;;;4.37;;
4676;SDS011;2352;48.180;11.478;2023-04-03T09:01:56;5.60;;;4.33;;
4676;SDS011;2352;48.180;11.478;2023-04-03T09:05:02;4.20;;;3.80;;
4676;SDS011;2352;48.180;11.478;2023-04-03T09:08:16;4.30;;;3.93;;
4676;SDS011;2352;48.180;11.478;2023-04-03T09:11:25;4.30;;;3.90;;
4676;SDS011;2352;48.180;11.478;2023-04-03T09:14:39;4.37;;;4.07;;
4676;SDS011;2352;48.180;11.478;2023-04-03T09:17:51;4.93;;;4.53;;
4676;SDS011;2352;48.180;11.478;2023-04-03T09:21:02;3.90;;;3.60;;
4676;SDS011;2352;48.180;11.478;2023-04-03T09:24:15;7.33;;;4.23;;
4676;SDS011;2352;48.180;11.478;2023-04-03T09:27:19;4.87;;;4.37;;
4676;SDS011;2352;48.180;11.478;2023-04-03T09:30:24;6.67;;;4.80;;
4676;SDS011;2352;48.180;11.478;2023-04-03T09:33:28;3.90;;;3.57;;
4676;SDS011;2352;48.180;11.478;2023-04-03T09:36:42;4.93;;;3.60;;
4676;SDS011;2352;48.180;11.478;2023-04-03T09:39:49;4.90;;;4.50;;
4676;SDS011;2352;48.180;11.478;2023-04-03T09:42:55;4.00;;;3.70;;
4676;SDS011;2352;48.180;11.478;2023-04-03T09:46:22;4.40;;;4.10;;
4676;SDS011;2352;48.180;11.478;2023-04-03T09:49:30;3.30;;;3.10;;
4676;SDS011;2352;48.180;11.478;2023-04-03T09:52:36;4.43;;;3.97;;
4676;SDS011;2352;48.180;11.478;2023-04-03T09:55:42;4.00;;;3.70;;
4676;SDS011;2352;48.180;11.478;2023-04-03T09:58:47;3.67;;;3.37;;
4676;SDS011;2352;48.180;11.478;2023-04-03T10:02:00;3.90;;;3.60;;
4676;SDS011;2352;48.180;11.478;2023-04-03T10:05:23;3.90;;;3.60;;
4676;SDS011;2352;48.180;11.478;2023-04-03T10:08:29;3.00;;;2.80;;
4676;SDS011;2352;48.180;11.478;2023-04-03T10:11:34;3.37;;;3.07;;
4676;SDS011;2352;48.180;11.478;2023-04-03T10:14:37;5.10;;;3.70;;
4676;SDS011;2352;48.180;11.478;2023-04-03T10:17:47;3.37;;;3.03;;
4676;SDS011;2352;48.180;11.478;2023-04-03T10:20:57;3.40;;;3.20;;
4676;SDS011;2352;48.180;11.478;2023-04-03T10:24:13;2.97;;;2.77;;
4676;SDS011;2352;48.180;11.478;2023-04-03T10:27:22;6.73;;;4.03;;
4676;SDS011;2352;48.180;11.478;2023-04-03T10:30:36;4.10;;;3.80;;
4676;SDS011;2352;48.180;11.478;2023-04-03T10:33:53;5.40;;;3.40;;
4676;SDS011;2352;48.180;11.478;2023-04-03T10:37:05;3.90;;;3.67;;
4676;SDS011;2352;48.180;11.478;2023-04-03T10:40:19;3.93;;;3.57;;
4676;SDS011;2352;48.180;11.478;2023-04-03T10:43:33;2.90;;;2.70;;
4676;SDS011;2352;48.180;11.478;2023-04-03T10:46:41;4.90;;;2.70;;
4676;SDS011;2352;48.180;11.478;2023-04-03T10:49:53;3.40;;;3.10;;
4676;SDS011;2352;48.180;11.478;2023-04-03T10:53:04;4.37;;;3.70;;
4676;SDS011;2352;48.180;11.478;2023-04-03T10:56:15;4.67;;;2.43;;
4676;SDS011;2352;48.180;11.478;2023-04-03T10:59:25;2.97;;;2.73;;
4676;SDS011;2352;48.180;11.478;2023-04-03T11:02:32;3.13;;;2.93;;
4676;SDS011;2352;48.180;11.478;2023-04-03T11:05:42;3.27;;;2.30;;
4676;SDS011;2352;48.180;11.478;2023-04-03T11:08:46;2.13;;;2.03;;
4676;SDS011;2352;48.180;11.478;2023-04-03T11:11:57;2.47;;;2.27;;
4676;SDS011;2352;48.180;11.478;2023-04-03T11:15:11;2.33;;;2.13;;
4676;SDS011;2352;48.180;11.478;2023-04-03T11:18:15;2.90;;;2.70;;
4676;SDS011;2352;48.180;11.478;2023-04-03T11:21:24;2.33;;;2.13;;
4676;SDS011;2352;48.180;11.478;2023-04-03T11:24:32;2.67;;;2.47;;
4676;SDS011;2352;48.180;11.478;2023-04-03T11:27:37;2.30;;;2.13;;
4676;SDS011;2352;48.180;11.478;2023-04-03T11:30:48;4.40;;;2.43;;
4676;SDS011;2352;48.180;11.478;2023-04-03T11:34:00;5.77;;;3.33;;
4676;SDS011;2352;48.180;11.478;2023-04-03T11:37:15;2.20;;;2.03;;
4676;SDS011;2352;48.180;11.478;2023-04-03T11:40:25;3.50;;;2.50;;
4676;SDS011;2352;48.180;11.478;2023-04-03T11:43:31;3.10;;;2.27;;
4676;SDS011;2352;48.180;11.478;2023-04-03T11:46:51;2.23;;;1.97;;
4676;SDS011;2352;48.180;11.478;2023-04-03T11:49:59;1.50;;;1.40;;
4676;SDS011;2352;48.180;11.478;2023-04-03T11:53:25;2.10;;;2.00;;
4676;SDS011;2352;48.180;11.478;2023-04-03T11:56:33;1.57;;;1.33;;
4676;SDS011;2352;48.180;11.478;2023-04-03T11:59:36;1.37;;;1.27;;
4676;SDS011;2352;48.180;11.478;2023-04-03T12:02:40;1.70;;;1.57;;
4676;SDS011;2352;48.180;11.478;2023-04-03T12:05:55;1.73;;;1.63;;
4676;SDS011;2352;48.180;11.478;2023-04-03T12:09:00;3.57;;;1.37;;
4676;SDS011;2352;48.180;11.478;2023-04-03T12:18:56;1.73;;;1.50;;
4676;SDS011;2352;48.180;11.478;2023-04-03T12:22:05;2.07;;;1.53;;
4676;SDS011;2352;48.180;11.478;2023-04-03T12:28:51;1.40;;;1.30;;
4676;SDS011;2352;48.180;11.478;2023-04-03T12:31:56;1.63;;;1.53;;
4676;SDS011;2352;48.180;11.478;2023-04-03T12:35:20;1.70;;;1.10;;
4676;SDS011;2352;48.180;11.478;2023-04-03T12:38:52;1.83;;;1.73;;
4676;SDS011;2352;48.180;11.478;2023-04-03T12:42:14;1.27;;;1.17;;
4676;SDS011;2352;48.180;11.478;2023-04-03T12:45:25;1.43;;;1.33;;
4676;SDS011;2352;48.180;11.478;2023-04-03T12:48:29;2.07;;;1.87;;
4676;SDS011;2352;48.180;11.478;2023-04-03T12:51:34;1.73;;;1.63;;
4676;SDS011;2352;48.180;11.478;2023-04-03T12:54:41;1.93;;;1.73;;
4676;SDS011;2352;48.180;11.478;2023-04-03T12:57:48;1.50;;;1.40;;
4676;SDS011;2352;48.180;11.478;2023-04-03T13:01:01;2.00;;;1.83;;
4676;SDS011;2352;48.180;11.478;2023-04-03T13:04:05;1.67;;;1.57;;
4676;SDS011;2352;48.180;11.478;2023-04-03T13:07:17;1.53;;;1.43;;
4676;SDS011;2352;48.180;11.478;2023-04-03T13:10:22;1.50;;;1.40;;
4676;SDS011;2352;48.180;11.478;2023-04-03T13:13:27;3.27;;;1.67;;
4676;SDS011;2352;48.180;11.478;2023-04-03T13:16:30;1.37;;;1.27;;
4676;SDS011;2352;48.180;11.478;2023-04-03T13:19:33;1.23;;;1.10;;
4676;SDS011;2352;48.180;11.478;2023-04-03T13:22:36;1.70;;;1.50;;
4676;SDS011;2352;48.180;11.478;2023-04-03T13:25:44;1.27;;;1.17;;
4676;SDS011;2352;48.180;11.478;2023-04-03T13:28:50;1.70;;;1.60;;
4676;SDS011;2352;48.180;11.478;2023-04-03T13:31:54;2.30;;;1.67;;
4676;SDS011;2352;48.180;11.478;2023-04-03T13:34:59;2.97;;;1.60;;
4676;SDS011;2352;48.180;11.478;2023-04-03T13:38:22;1.77;;;1.63;;
4676;SDS011;2352;48.180;11.478;2023-04-03T13:41:29;2.53;;;1.33;;
4676;SDS011;2352;48.180;11.478;2023-04-03T13:44:35;1.33;;;1.23;;
4676;SDS011;2352;48.180;11.478;2023-04-03T13:47:41;2.17;;;1.77;;
4676;SDS011;2352;48.180;11.478;2023-04-03T13:50:51;2.47;;;1.60;;
4676;SDS011;2352;48.180;11.478;2023-04-03T13:53:57;1.60;;;1.50;;
4676;SDS011;2352;48.180;11.478;2023-04-03T13:57:10;1.77;;;1.67;;
4676;SDS011;2352;48.180;11.478;2023-04-03T14:00:20;3.20;;;1.43;;
4676;SDS011;2352;48.180;11.478;2023-04-03T14:03:41;1.50;;;1.40;;
4676;SDS011;2352;48.180;11.478;2023-04-03T14:06:46;3.57;;;1.77;;
4676;SDS011;2352;48.180;11.478;2023-04-03T14:09:49;1.60;;;1.50;;
4676;SDS011;2352;48.180;11.478;2023-04-03T14:12:53;2.40;;;1.80;;
4676;SDS011;2352;48.180;11.478;2023-04-03T14:15:58;1.63;;;1.43;;
4676;SDS011;2352;48.180;11.478;2023-04-03T14:19:20;1.70;;;1.50;;
4676;SDS011;2352;48.180;11.478;2023-04-03T14:22:25;1.20;;;1.10;;
4676;SDS011;2352;48.180;11.478;2023-04-03T14:25:29;1.50;;;1.30;;
4676;SDS011;2352;48.180;11.478;2023-04-03T14:28:33;2.63;;;1.30;;
4676;SDS011;2352;48.180;11.478;2023-04-03T14:31:38;1.20;;;1.10;;
4676;SDS011;2352;48.180;11.478;2023-04-03T14:34:41;0.97;;;0.97;;
4676;SDS011;2352;48.180;11.478;2023-04-03T14:37:45;1.13;;;0.83;;
4676;SDS011;2352;48.180;11.478;2023-04-03T14:40:49;1.87;;;0.80;;
4676;SDS011;2352;48.180;11.478;2023-04-03T14:43:53;1.83;;;1.50;;
4676;SDS011;2352;48.180;11.478;2023-04-03T14:46:57;1.07;;;1.03;;
4676;SDS011;2352;48.180;11.478;2023-04-03T14:50:01;1.87;;;1.33;;
4676;SDS011;2352;48.180;11.478;2023-04-03T14:53:05;0.93;;;0.73;;
4676;SDS011;2352;48.180;11.478;2023-04-03T14:56:12;1.93;;;1.30;;
4676;SDS011;2352;48.180;11.478;2023-04-03T14:59:16;1.40;;;1.37;;
4676;SDS011;2352;48.180;11.478;2023-04-03T15:02:27;1.07;;;0.97;;
4676;SDS011;2352;48.180;11.478;2023-04-03T15:05:31;1.37;;;0.90;;
4676;SDS011;2352;48.180;11.478;2023-04-03T15:08:34;1.17;;;1.07;;
4676;SDS011;2352;48.180;11.478;2023-04-03T15:11:37;1.53;;;1.00;;
4676;SDS011;2352;48.180;11.478;2023-04-03T15:14:40;1.37;;;1.00;;
4676;SDS011;2352;48.180;11.478;2023-04-03T15:18:01;1.03;;;0.90;;
4676;SDS011;2352;48.180;11.478;2023-04-03T15:21:05;0.80;;;0.80;;
4676;SDS011;2352;48.180;11.478;2023-04-03T15:24:08;1.23;;;0.83;;
4676;SDS011;2352;48.180;11.478;2023-04-03T15:27:12;0.80;;;0.70;;
4676;SDS011;2352;48.180;11.478;2023-04-03T15:30:17;0.93;;;0.87;;
4676;SDS011;2352;48.180;11.478;2023-04-03T15:33:22;1.13;;;1.03;;
4676;SDS011;2352;48.180;11.478;2023-04-03T15:36:25;0.80;;;0.80;;
4676;SDS011;2352;48.180;11.478;2023-04-03T15:39:34;1.77;;;1.00;;
4676;SDS011;2352;48.180;11.478;2023-04-03T15:42:37;0.90;;;0.87;;
4676;SDS011;2352;48.180;11.478;2023-04-03T15:45:41;1.50;;;1.00;;
4676;SDS011;2352;48.180;11.478;2023-04-03T15:48:46;1.30;;;1.20;;
4676;SDS011;2352;48.180;11.478;2023-04-03T15:51:50;1.27;;;1.17;;
4676;SDS011;2352;48.180;11.478;2023-04-03T15:54:53;1.13;;;0.80;;
4676;SDS011;2352;48.180;11.478;2023-04-03T15:57:56;1.23;;;0.90;;
4676;SDS011;2352;48.180;11.478;2023-04-03T16:00:59;1.30;;;1.00;;
4676;SDS011;2352;48.180;11.478;2023-04-03T16:04:04;0.80;;;0.70;;
4676;SDS011;2352;48.180;11.478;2023-04-03T16:07:09;4.20;;;1.33;;
4676;SDS011;2352;48.180;11.478;2023-04-03T16:10:12;1.23;;;1.00;;
4676;SDS011;2352;48.180;11.478;2023-04-03T16:13:17;0.90;;;0.90;;
4676;SDS011;2352;48.180;11.478;2023-04-03T16:16:20;1.43;;;1.27;;
4676;SDS011;2352;48.180;11.478;2023-04-03T16:19:25;1.43;;;1.23;;
4676;SDS011;2352;48.180;11.478;2023-04-03T16:22:28;1.90;;;1.30;;
4676;SDS011;2352;48.180;11.478;2023-04-03T16:25:32;1.40;;;0.90;;
4676;SDS011;2352;48.180;11.478;2023-04-03T16:28:35;2.77;;;1.20;;
4676;SDS011;2352;48.180;11.478;2023-04-03T16:31:38;1.70;;;1.27;;
4676;SDS011;2352;48.180;11.478;2023-04-03T16:34:42;0.83;;;0.80;;
4676;SDS011;2352;48.180;11.478;2023-04-03T16:37:45;2.63;;;1.20;;
4676;SDS011;2352;48.180;11.478;2023-04-03T16:40:48;1.03;;;0.93;;
4676;SDS011;2352;48.180;11.478;2023-04-03T16:43:51;2.63;;;1.40;;
4676;SDS011;2352;48.180;11.478;2023-04-03T16:46:54;1.30;;;1.10;;
4676;SDS011;2352;48.180;11.478;2023-04-03T16:49:59;1.80;;;1.53;;
4676;SDS011;2352;48.180;11.478;2023-04-03T16:53:02;1.90;;;1.03;;
4676;SDS011;2352;48.180;11.478;2023-04-03T16:56:05;1.60;;;1.30;;
4676;SDS011;2352;48.180;11.478;2023-04-03T16:59:08;1.10;;;1.03;;
4676;SDS011;2352;48.180;11.478;2023-04-03T17:02:11;1.30;;;1.20;;
4676;SDS011;2352;48.180;11.478;2023-04-03T17:05:15;1.37;;;1.20;;
4676;SDS011;2352;48.180;11.478;2023-04-03T17:08:18;1.53;;;1.37;;
4676;SDS011;2352;48.180;11.478;2023-04-03T17:11:21;8.27;;;1.47;;
4676;SDS011;2352;48.180;11.478;2023-04-03T17:14:24;1.60;;;1.30;;
4676;SDS011;2352;48.180;11.478;2023-04-03T17:17:27;1.23;;;1.13;;
4676;SDS011;2352;48.180;11.478;2023-04-03T17:20:32;1.30;;;0.77;;
4676;SDS011;2352;48.180;11.478;2023-04-03T17:23:37;1.57;;;1.33;;
4676;SDS011;2352;48.180;11.478;2023-04-03T17:26:43;1.47;;;1.00;;
4676;SDS011;2352;48.180;11.478;2023-04-03T17:29:46;1.27;;;1.17;;
4676;SDS011;2352;48.180;11.478;2023-04-03T17:32:49;2.37;;;1.73;;
4676;SDS011;2352;48.180;11.478;2023-04-03T17:35:53;1.50;;;1.40;;
4676;SDS011;2352;48.180;11.478;2023-04-03T17:38:58;1.40;;;1.30;;
4676;SDS011;2352;48.180;11.478;2023-04-03T17:42:00;1.37;;;1.20;;
4676;SDS011;2352;48.180;11.478;2023-04-03T17:45:04;3.30;;;1.20;;
4676;SDS011;2352;48.180;11.478;2023-04-03T17:48:08;2.87;;;2.00;;
4676;SDS011;2352;48.180;11.478;2023-04-03T17:51:14;2.00;;;1.60;;
4676;SDS011;2352;48.180;11.478;2023-04-03T17:54:18;3.43;;;1.47;;
4676;SDS011;2352;48.180;11.478;2023-04-03T17:57:21;2.47;;;1.50;;
4676;SDS011;2352;48.180;11.478;2023-04-03T18:00:23;1.53;;;1.43;;
4676;SDS011;2352;48.180;11.478;2023-04-03T18:03:26;2.97;;;1.40;;
4676;SDS011;2352;48.180;11.478;2023-04-03T18:06:31;1.90;;;1.80;;
4676;SDS011;2352;48.180;11.478;2023-04-03T18:09:38;1.97;;;1.40;;
4676;SDS011;2352;48.180;11.478;2023-04-03T18:12:42;1.53;;;1.23;;
4676;SDS011;2352;48.180;11.478;2023-04-03T18:15:45;1.30;;;1.20;;
4676;SDS011;2352;48.180;11.478;2023-04-03T18:18:48;2.30;;;1.60;;
4676;SDS011;2352;48.180;11.478;2023-04-03T18:22:10;2.40;;;1.60;;
4676;SDS011;2352;48.180;11.478;2023-04-03T18:25:15;2.63;;;1.60;;
4676;SDS011;2352;48.180;11.478;2023-04-03T18:28:18;1.67;;;1.57;;
4676;SDS011;2352;48.180;11.478;2023-04-03T18:31:22;2.50;;;1.67;;
4676;SDS011;2352;48.180;11.478;2023-04-03T18:34:27;1.73;;;1.63;;
4676;SDS011;2352;48.180;11.478;2023-04-03T18:37:32;2.03;;;1.67;;
4676;SDS011;2352;48.180;11.478;2023-04-03T18:40:34;1.93;;;1.53;;
4676;SDS011;2352;48.180;11.478;2023-04-03T18:43:38;4.93;;;1.80;;
4676;SDS011;2352;48.180;11.478;2023-04-03T18:46:41;4.37;;;1.90;;
4676;SDS011;2352;48.180;11.478;2023-04-03T18:49:44;2.27;;;2.00;;
4676;SDS011;2352;48.180;11.478;2023-04-03T18:52:48;3.07;;;1.40;;
4676;SDS011;2352;48.180;11.478;2023-04-03T18:55:51;1.27;;;1.17;;
4676;SDS011;2352;48.180;11.478;2023-04-03T18:58:54;1.47;;;1.37;;
4676;SDS011;2352;48.180;11.478;2023-04-03T19:01:57;1.03;;;0.93;;
4676;SDS011;2352;48.180;11.478;2023-04-03T19:05:02;1.30;;;1.20;;